Time;durP1;ratioP1;P1;durP2;ratioP2;P2;SDS_P1;SDS_P2;PMS_P1;PMS_P2;Temp;Humidity;BMP_temperature;BMP_pressure;BME280_temperature;BME280_humidity;BME280_pressure;Samples;Min_cycle;Max_cycle;Signal;HPM_P1;HPM_P2
2023/05/09 00:01:35;;;;;;;;;;;10.80;99.90;;;;;;8276589;28;20017;-82
2023/05/09 00:05:35;;;;;;;;;;;10.50;99.90;;;;;;8272441;28;19913;-82
2023/05/09 00:09:36;;;;;;;;;;;10.60;99.90;;;;;;8277587;28;20051;-81
2023/05/09 00:13:37;;;;;;;;;;;10.50;99.90;;;;;;8288471;28;19917;-81
2023/05/09 00:17:38;;;;;;;;;;;10.60;99.90;;;;;;8269565;28;20458;-81
2023/05/09 00:21:39;;;;;;;;;;;10.30;99.90;;;;;;8278019;28;20397;-81
2023/05/09 00:25:39;;;;;;;;;;;10.00;99.90;;;;;;8277644;28;19909;-81
2023/05/09 00:29:40;;;;;;;;;;;10.10;99.90;;;;;;8279956;28;20394;-81
2023/05/09 00:33:40;;;;;;;;;;;10.10;99.90;;;;;;8284232;28;19913;-81
2023/05/09 00:37:41;;;;;;;;;;;10.00;99.90;;;;;;8275589;28;19914;-81
2023/05/09 00:41:41;;;;;;;;;;;10.10;99.90;;;;;;8282470;28;19921;-81
2023/05/09 00:45:45;;;;;;;;;;;9.90;99.90;;;;;;8281938;28;19949;-81
2023/05/09 00:49:45;;;;;;;;;;;9.70;99.90;;;;;;8268410;28;19936;-81
2023/05/09 00:53:46;;;;;;;;;;;9.60;99.90;;;;;;8276793;28;20020;-82
2023/05/09 00:57:46;;;;;;;;;;;9.70;99.90;;;;;;8281775;28;20471;-82
2023/05/09 01:01:47;;;;;;;;;;;9.80;99.90;;;;;;8284842;28;20398;-82
2023/05/09 01:06:07;;;;;;;;;;;9.80;99.90;;;;;;8277690;28;19917;-81
2023/05/09 01:10:27;;;;;;;;;;;9.70;99.90;;;;;;8273219;28;19913;-81
2023/05/09 01:14:45;;;;;;;;;;;9.80;99.90;;;;;;8271156;28;20432;-82
2023/05/09 01:18:48;;;;;;;;;;;9.50;99.90;;;;;;8280906;28;19932;-82
2023/05/09 01:22:59;;;;;;;;;;;9.60;99.90;;;;;;8271233;28;20432;-82
2023/05/09 01:27:06;;;;;;;;;;;9.50;99.90;;;;;;8281229;28;19914;-82
2023/05/09 01:31:07;;;;;;;;;;;9.60;99.90;;;;;;8274672;28;19929;-82
2023/05/09 01:35:09;;;;;;;;;;;9.60;99.90;;;;;;8283071;28;20255;-81
2023/05/09 01:39:11;;;;;;;;;;;9.60;99.90;;;;;;8274537;28;19914;-82
2023/05/09 01:43:13;;;;;;;;;;;9.60;99.90;;;;;;8268686;28;19921;-81
2023/05/09 01:47:15;;;;;;;;;;;9.60;99.90;;;;;;8277515;28;19910;-81
2023/05/09 01:55:55;;;;;;;;;;;9.60;99.90;;;;;;8290634;28;19972;-81
2023/05/09 01:59:56;;;;;;;;;;;9.70;99.90;;;;;;8266095;28;19913;-81
2023/05/09 02:03:57;;;;;;;;;;;9.90;99.90;;;;;;8268981;28;19918;-82
2023/05/09 02:07:57;;;;;;;;;;;9.90;99.90;;;;;;8275885;28;19922;-81
2023/05/09 02:11:58;;;;;;;;;;;10.00;99.90;;;;;;8293232;28;19910;-81
2023/05/09 02:15:59;;;;;;;;;;;10.00;99.90;;;;;;8274569;28;19918;-81
2023/05/09 02:20:00;;;;;;;;;;;9.80;99.90;;;;;;8272496;28;19914;-81
2023/05/09 02:24:01;;;;;;;;;;;9.80;99.90;;;;;;8266941;28;20157;-81
2023/05/09 02:28:02;;;;;;;;;;;9.90;99.90;;;;;;8273315;28;20371;-81
2023/05/09 02:32:03;;;;;;;;;;;10.00;99.90;;;;;;8286924;28;19913;-81
2023/05/09 02:36:04;;;;;;;;;;;10.10;99.90;;;;;;8299197;28;19924;-81
2023/05/09 02:40:06;;;;;;;;;;;9.80;99.90;;;;;;8290520;28;19913;-81
2023/05/09 02:44:07;;;;;;;;;;;9.70;99.90;;;;;;8303555;28;19952;-82
2023/05/09 02:48:07;;;;;;;;;;;10.20;99.90;;;;;;8314048;28;19905;-80
2023/05/09 02:52:08;;;;;;;;;;;10.20;99.90;;;;;;8282478;28;19976;-81
2023/05/09 02:56:09;;;;;;;;;;;10.00;99.90;;;;;;8264600;23;19933;-81
2023/05/09 03:00:10;;;;;;;;;;;9.70;99.90;;;;;;8226941;28;19957;-81
2023/05/09 03:04:11;;;;;;;;;;;9.90;99.90;;;;;;8220520;28;19917;-81
2023/05/09 03:08:11;;;;;;;;;;;9.90;99.90;;;;;;8212186;28;20356;-82
2023/05/09 03:12:12;;;;;;;;;;;9.90;99.90;;;;;;8207661;28;19918;-82
2023/05/09 03:16:13;;;;;;;;;;;10.30;99.90;;;;;;8215741;28;20299;-81
2023/05/09 03:20:14;;;;;;;;;;;10.10;99.90;;;;;;8233107;28;20343;-82
2023/05/09 03:24:15;;;;;;;;;;;10.40;99.90;;;;;;8200676;28;20065;-82
2023/05/09 03:28:15;;;;;;;;;;;10.50;99.90;;;;;;8208248;28;19950;-81
2023/05/09 03:32:15;;;;;;;;;;;10.60;99.90;;;;;;8205364;28;19916;-81
2023/05/09 03:36:16;;;;;;;;;;;10.70;99.90;;;;;;8214911;28;19915;-82
2023/05/09 03:40:17;;;;;;;;;;;10.40;99.90;;;;;;8228285;28;19920;-82
2023/05/09 03:44:17;;;;;;;;;;;10.50;99.90;;;;;;8228963;28;19910;-81
2023/05/09 03:48:17;;;;;;;;;;;10.50;99.90;;;;;;8232567;28;20359;-82
2023/05/09 03:52:18;;;;;;;;;;;10.60;99.90;;;;;;8224193;28;19961;-81
2023/05/09 03:56:18;;;;;;;;;;;10.50;99.90;;;;;;8217981;28;20600;-79
2023/05/09 04:00:20;;;;;;;;;;;10.50;99.90;;;;;;8219872;28;19918;-80
2023/05/09 04:04:20;;;;;;;;;;;10.40;99.90;;;;;;8219406;28;19914;-82
2023/05/09 04:08:21;;;;;;;;;;;10.40;99.90;;;;;;8213238;28;20391;-82
2023/05/09 04:12:22;;;;;;;;;;;10.70;99.90;;;;;;8202661;28;20387;-82
2023/05/09 04:16:22;;;;;;;;;;;10.70;99.90;;;;;;8199452;28;19933;-82
2023/05/09 04:20:23;;;;;;;;;;;10.60;99.90;;;;;;8217919;28;19914;-82
2023/05/09 04:24:23;;;;;;;;;;;10.50;99.90;;;;;;8206374;28;20490;-82
2023/05/09 04:28:24;;;;;;;;;;;10.70;99.90;;;;;;8211594;28;20005;-81
2023/05/09 04:32:25;;;;;;;;;;;10.70;99.90;;;;;;8209329;28;19926;-81
2023/05/09 04:36:30;;;;;;;;;;;10.90;99.90;;;;;;8215776;28;20302;-81
2023/05/09 04:40:31;;;;;;;;;;;10.80;99.90;;;;;;8211595;28;19973;-80
2023/05/09 04:44:32;;;;;;;;;;;11.10;99.90;;;;;;8213482;28;19914;-81
2023/05/09 04:48:33;;;;;;;;;;;11.20;99.90;;;;;;8229374;28;19929;-81
2023/05/09 04:52:33;;;;;;;;;;;11.60;99.90;;;;;;8239366;28;20429;-81
2023/05/09 04:56:34;;;;;;;;;;;11.60;99.90;;;;;;8210078;28;21304;-81
2023/05/09 05:00:35;;;;;;;;;;;11.70;99.90;;;;;;8202035;28;19926;-81
2023/05/09 05:04:35;;;;;;;;;;;11.80;99.90;;;;;;8210116;28;19922;-80
2023/05/09 05:08:35;;;;;;;;;;;11.80;99.90;;;;;;8213682;28;19922;-81
2023/05/09 05:12:36;;;;;;;;;;;11.70;99.90;;;;;;8215449;28;19914;-81
2023/05/09 05:16:36;;;;;;;;;;;11.80;99.90;;;;;;8214493;28;19953;-81
2023/05/09 05:20:39;;;;;;;;;;;12.00;99.90;;;;;;8218794;28;19914;-81
2023/05/09 05:24:39;;;;;;;;;;;12.00;99.90;;;;;;8241919;28;19914;-82
2023/05/09 05:28:40;;;;;;;;;;;12.20;99.90;;;;;;8219075;28;19910;-82
2023/05/09 05:32:40;;;;;;;;;;;12.10;99.90;;;;;;8200243;28;19920;-88
2023/05/09 05:36:44;;;;;;;;;;;12.30;99.90;;;;;;8207671;28;19922;-88
2023/05/09 05:40:52;;;;;;;;;;;12.50;99.90;;;;;;8196193;28;19914;-88
2023/05/09 05:44:53;;;;;;;;;;;12.70;99.90;;;;;;8196429;28;19914;-89
2023/05/09 05:49:21;;;;;;;;;;;12.70;99.90;;;;;;8210549;28;19930;-88
2023/05/09 05:53:21;;;;;;;;;;;12.70;99.90;;;;;;8189989;28;19914;-88
2023/05/09 05:57:21;;;;;;;;;;;12.70;99.90;;;;;;8218919;28;19919;-86
2023/05/09 06:01:22;;;;;;;;;;;13.00;99.90;;;;;;8205997;28;20481;-86
2023/05/09 06:05:22;;;;;;;;;;;13.40;99.90;;;;;;8213674;28;20166;-86
2023/05/09 06:09:23;;;;;;;;;;;13.70;99.90;;;;;;8207624;28;19916;-86
2023/05/09 06:13:23;;;;;;;;;;;14.10;99.90;;;;;;8210088;28;19914;-85
2023/05/09 06:17:23;;;;;;;;;;;14.50;99.90;;;;;;8122512;28;19923;-87
2023/05/09 06:21:25;;;;;;;;;;;14.30;99.90;;;;;;8143920;29;20316;-85
2023/05/09 06:25:25;;;;;;;;;;;14.50;99.90;;;;;;8143532;29;19927;-87
2023/05/09 06:29:35;;;;;;;;;;;14.80;99.90;;;;;;8143426;29;20553;-85
2023/05/09 06:33:35;;;;;;;;;;;14.80;99.90;;;;;;8145508;29;19923;-86
2023/05/09 06:38:11;;;;;;;;;;;15.10;99.90;;;;;;8149685;29;19919;-86
2023/05/09 06:42:11;;;;;;;;;;;15.00;99.90;;;;;;8129881;29;19954;-86
2023/05/09 06:46:12;;;;;;;;;;;14.50;99.90;;;;;;8148369;29;20106;-86
2023/05/09 06:50:12;;;;;;;;;;;14.20;99.90;;;;;;8128946;29;19986;-85
2023/05/09 06:54:13;;;;;;;;;;;14.20;99.90;;;;;;8150218;29;20120;-87
2023/05/09 06:58:13;;;;;;;;;;;14.60;99.90;;;;;;8156412;29;19919;-87
2023/05/09 07:02:14;;;;;;;;;;;15.00;99.90;;;;;;8128902;29;19923;-85
2023/05/09 07:06:15;;;;;;;;;;;15.10;99.90;;;;;;8127489;29;19922;-86
2023/05/09 07:10:16;;;;;;;;;;;14.90;99.90;;;;;;8126830;29;19922;-85
2023/05/09 07:14:16;;;;;;;;;;;14.80;99.90;;;;;;8134496;29;19967;-85
2023/05/09 07:18:17;;;;;;;;;;;15.00;99.90;;;;;;8136225;29;20063;-86
2023/05/09 07:22:17;;;;;;;;;;;15.30;99.90;;;;;;8154753;29;19915;-86
2023/05/09 07:26:17;;;;;;;;;;;15.40;99.90;;;;;;8141106;29;19922;-82
2023/05/09 07:30:18;;;;;;;;;;;15.70;99.90;;;;;;8157920;29;19919;-82
2023/05/09 07:34:19;;;;;;;;;;;15.90;99.90;;;;;;8153948;29;19915;-83
2023/05/09 07:38:19;;;;;;;;;;;15.90;99.90;;;;;;8142956;29;19929;-84
2023/05/09 07:42:20;;;;;;;;;;;15.90;99.90;;;;;;8148523;29;19919;-83
2023/05/09 07:46:21;;;;;;;;;;;15.90;99.90;;;;;;8154573;29;20411;-84
2023/05/09 07:50:22;;;;;;;;;;;15.90;99.90;;;;;;8152944;29;19915;-84
2023/05/09 07:54:22;;;;;;;;;;;16.00;99.90;;;;;;8164191;29;19926;-84
2023/05/09 07:58:23;;;;;;;;;;;16.00;99.90;;;;;;8132245;29;20396;-84
2023/05/09 08:02:23;;;;;;;;;;;15.90;99.90;;;;;;8132816;29;19922;-84
2023/05/09 08:06:25;;;;;;;;;;;16.40;99.90;;;;;;8170028;29;19915;-84
2023/05/09 08:10:29;;;;;;;;;;;16.80;99.90;;;;;;8139405;29;19915;-84
2023/05/09 08:14:29;;;;;;;;;;;17.00;99.90;;;;;;8154357;29;19995;-84
2023/05/09 08:18:30;;;;;;;;;;;17.20;99.90;;;;;;8151974;29;19919;-83
2023/05/09 08:22:30;;;;;;;;;;;17.20;99.90;;;;;;8137626;29;19919;-84
2023/05/09 08:26:31;;;;;;;;;;;17.40;99.90;;;;;;8150547;29;19920;-83
2023/05/09 08:30:31;;;;;;;;;;;17.50;99.90;;;;;;8172129;28;19919;-83
2023/05/09 08:34:33;;;;;;;;;;;17.90;99.90;;;;;;8147663;29;19923;-82
2023/05/09 08:38:35;;;;;;;;;;;18.00;99.90;;;;;;8151116;29;19911;-83
2023/05/09 08:42:35;;;;;;;;;;;18.10;99.90;;;;;;8160290;29;19927;-82
2023/05/09 08:46:40;;;;;;;;;;;18.50;99.90;;;;;;8143378;29;20174;-83
2023/05/09 08:50:40;;;;;;;;;;;18.60;99.90;;;;;;8156111;29;20002;-83
2023/05/09 08:54:45;;;;;;;;;;;18.90;99.90;;;;;;8146058;28;20294;-82
2023/05/09 08:58:46;;;;;;;;;;;19.10;99.90;;;;;;8128318;29;19934;-84
2023/05/09 09:03:07;;;;;;;;;;;19.80;99.90;;;;;;8147209;29;19918;-84
2023/05/09 09:07:08;;;;;;;;;;;19.70;99.90;;;;;;8149787;29;19911;-86
2023/05/09 09:11:12;;;;;;;;;;;19.30;99.90;;;;;;8146044;29;19974;-85
2023/05/09 09:15:16;;;;;;;;;;;19.00;99.90;;;;;;8146393;29;19915;-83
2023/05/09 09:19:17;;;;;;;;;;;19.20;99.90;;;;;;8140364;29;19914;-83
2023/05/09 09:23:23;;;;;;;;;;;19.70;99.90;;;;;;8130043;29;19911;-85
2023/05/09 09:27:35;;;;;;;;;;;19.90;99.90;;;;;;8145205;29;20095;-84
2023/05/09 09:31:45;;;;;;;;;;;20.30;99.90;;;;;;8140805;29;19919;-84
2023/05/09 09:35:50;;;;;;;;;;;20.80;99.90;;;;;;8144196;28;19919;-82
2023/05/09 09:39:54;;;;;;;;;;;20.90;99.90;;;;;;8143077;29;19915;-82
2023/05/09 09:43:57;;;;;;;;;;;20.90;99.90;;;;;;8130361;29;20299;-82
2023/05/09 09:47:58;;;;;;;;;;;21.30;99.90;;;;;;8130709;29;19974;-82
2023/05/09 09:51:59;;;;;;;;;;;22.00;99.90;;;;;;8143928;29;19919;-83
2023/05/09 09:55:59;;;;;;;;;;;22.70;99.90;;;;;;8130556;29;19933;-82
2023/05/09 10:00:00;;;;;;;;;;;22.50;99.90;;;;;;8131194;29;19941;-82
2023/05/09 10:04:02;;;;;;;;;;;22.20;99.90;;;;;;8132955;29;20388;-82
2023/05/09 10:08:03;;;;;;;;;;;22.20;99.90;;;;;;8135031;29;19911;-83
2023/05/09 10:12:05;;;;;;;;;;;22.30;99.90;;;;;;8133339;29;19915;-82
2023/05/09 10:16:07;;;;;;;;;;;22.10;99.90;;;;;;8147172;29;19922;-82
2023/05/09 10:20:08;;;;;;;;;;;21.70;99.90;;;;;;8145687;29;19919;-82
2023/05/09 10:24:09;;;;;;;;;;;21.30;99.90;;;;;;8157345;29;20013;-82
2023/05/09 10:28:10;;;;;;;;;;;22.00;99.90;;;;;;8153420;29;19922;-82
2023/05/09 10:32:15;;;;;;;;;;;22.50;99.90;;;;;;8131792;29;20002;-82
2023/05/09 10:36:19;;;;;;;;;;;21.80;99.90;;;;;;8141628;29;20425;-82
2023/05/09 10:40:19;;;;;;;;;;;21.40;99.90;;;;;;8128969;29;19915;-82
2023/05/09 10:44:22;;;;;;;;;;;21.50;99.90;;;;;;8120599;29;20423;-82
2023/05/09 10:48:41;;;;;;;;;;;20.50;99.90;;;;;;8153011;29;19916;-87
2023/05/09 10:53:01;;;;;;;;;;;19.90;99.90;;;;;;8147927;29;20455;-84
2023/05/09 10:57:02;;;;;;;;;;;19.80;99.90;;;;;;8134530;29;19987;-83
2023/05/09 11:01:09;;;;;;;;;;;19.80;99.90;;;;;;8146165;29;20356;-84
2023/05/09 11:05:14;;;;;;;;;;;20.20;99.90;;;;;;8148423;29;19923;-86
2023/05/09 11:09:26;;;;;;;;;;;21.30;99.90;;;;;;8150125;29;19919;-84
2023/05/09 11:13:31;;;;;;;;;;;22.20;99.90;;;;;;8151199;29;19919;-84
2023/05/09 11:17:31;;;;;;;;;;;21.90;99.90;;;;;;8145441;29;20055;-84
2023/05/09 11:21:34;;;;;;;;;;;22.60;99.90;;;;;;8159690;29;19915;-84
2023/05/09 11:26:01;;;;;;;;;;;22.00;99.90;;;;;;8189179;28;19939;-86
2023/05/09 11:30:05;;;;;;;;;;;22.20;99.90;;;;;;8142563;28;19938;-85
2023/05/09 11:38:40;;;;;;;;;;;22.10;99.90;;;;;;8105167;29;19915;-86
2023/05/09 11:42:48;;;;;;;;;;;22.50;99.90;;;;;;8118631;29;19915;-85
2023/05/09 11:46:49;;;;;;;;;;;23.30;99.90;;;;;;8142742;29;19920;-85
2023/05/09 11:50:49;;;;;;;;;;;22.50;99.90;;;;;;8136389;29;20120;-86
2023/05/09 11:54:50;;;;;;;;;;;22.90;99.90;;;;;;8146367;29;19974;-86
2023/05/09 11:58:51;;;;;;;;;;;24.10;99.90;;;;;;8146658;29;19923;-85
2023/05/09 12:02:51;;;;;;;;;;;24.60;99.90;;;;;;8129388;29;20448;-85
2023/05/09 12:07:01;;;;;;;;;;;25.30;99.90;;;;;;8150768;29;19987;-85
2023/05/09 12:11:08;;;;;;;;;;;25.50;99.90;;;;;;8146352;29;20558;-85
2023/05/09 12:15:09;;;;;;;;;;;24.80;99.90;;;;;;8148897;29;19995;-85
2023/05/09 12:19:10;;;;;;;;;;;24.80;99.90;;;;;;8151766;29;19911;-85
2023/05/09 12:23:13;;;;;;;;;;;24.90;99.90;;;;;;8150830;29;19915;-84
2023/05/09 12:27:13;;;;;;;;;;;26.70;99.90;;;;;;8147711;29;20372;-84
2023/05/09 12:31:15;;;;;;;;;;;24.70;99.90;;;;;;8145781;29;19917;-84
2023/05/09 12:35:15;;;;;;;;;;;23.80;99.90;;;;;;8146407;29;19957;-84
2023/05/09 12:39:23;;;;;;;;;;;25.00;99.90;;;;;;8129125;29;19911;-85
2023/05/09 12:43:23;;;;;;;;;;;24.80;99.90;;;;;;8152318;29;20006;-86
2023/05/09 12:48:03;;;;;;;;;;;25.30;99.90;;;;;;8146843;29;20308;-83
2023/05/09 12:52:04;;;;;;;;;;;25.50;99.90;;;;;;8137381;29;19918;-86
2023/05/09 12:56:25;;;;;;;;;;;25.00;99.90;;;;;;8144177;29;20379;-84
2023/05/09 13:00:45;;;;;;;;;;;24.00;99.90;;;;;;8129087;29;20280;-85
2023/05/09 13:04:45;;;;;;;;;;;24.90;99.90;;;;;;8147487;29;20404;-84
2023/05/09 13:08:56;;;;;;;;;;;27.10;99.90;;;;;;8140588;29;20002;-84
2023/05/09 13:13:32;;;;;;;;;;;28.00;99.90;;;;;;8139696;29;19912;-85
2023/05/09 13:17:32;;;;;;;;;;;29.80;98.60;;;;;;8126083;29;19921;-85
2023/05/09 13:21:36;;;;;;;;;;;29.10;97.30;;;;;;8138570;29;19912;-84
2023/05/09 13:25:47;;;;;;;;;;;28.90;98.10;;;;;;8139808;29;19915;-84
2023/05/09 13:29:47;;;;;;;;;;;29.10;99.90;;;;;;8139988;29;19915;-86
2023/05/09 13:33:48;;;;;;;;;;;29.20;97.00;;;;;;8142892;29;19963;-85
2023/05/09 13:37:49;;;;;;;;;;;29.00;95.50;;;;;;8137377;29;19912;-85
2023/05/09 13:41:52;;;;;;;;;;;28.40;95.20;;;;;;8138878;29;20047;-84
2023/05/09 13:45:58;;;;;;;;;;;28.90;97.00;;;;;;8139597;29;19915;-85
2023/05/09 13:50:08;;;;;;;;;;;29.10;93.10;;;;;;8128636;29;20320;-87
2023/05/09 13:54:11;;;;;;;;;;;29.50;94.70;;;;;;8139060;29;19955;-85
2023/05/09 13:58:31;;;;;;;;;;;27.80;95.00;;;;;;8131643;29;19938;-86
2023/05/09 14:02:31;;;;;;;;;;;27.10;97.90;;;;;;8135754;29;19911;-86
2023/05/09 14:06:32;;;;;;;;;;;26.70;98.30;;;;;;8138386;29;19938;-83
2023/05/09 14:10:53;;;;;;;;;;;25.50;99.90;;;;;;8119684;29;19919;-84
2023/05/09 14:14:54;;;;;;;;;;;24.70;99.90;;;;;;8119992;29;19919;-85
2023/05/09 14:18:54;;;;;;;;;;;24.60;99.90;;;;;;8118028;29;20221;-84
2023/05/09 14:22:58;;;;;;;;;;;24.50;99.90;;;;;;8140328;29;19919;-85
2023/05/09 14:27:06;;;;;;;;;;;25.00;99.90;;;;;;8130737;29;19915;-84
2023/05/09 14:31:16;;;;;;;;;;;24.90;99.90;;;;;;8123631;29;19919;-84
2023/05/09 14:35:16;;;;;;;;;;;24.70;99.90;;;;;;8133733;29;19953;-83
2023/05/09 14:39:19;;;;;;;;;;;25.20;99.90;;;;;;8119830;29;20376;-84
2023/05/09 14:43:21;;;;;;;;;;;25.60;99.90;;;;;;8142140;29;19927;-85
2023/05/09 14:47:21;;;;;;;;;;;25.50;98.90;;;;;;8149888;29;20443;-85
2023/05/09 14:51:22;;;;;;;;;;;25.70;99.80;;;;;;8147059;29;19915;-86
2023/05/09 14:55:22;;;;;;;;;;;25.30;99.90;;;;;;8126584;29;20034;-86
2023/05/09 14:59:23;;;;;;;;;;;25.10;99.90;;;;;;8198303;23;19926;-81
2023/05/09 15:03:23;;;;;;;;;;;25.30;99.90;;;;;;8205470;28;19919;-81
2023/05/09 15:07:24;;;;;;;;;;;25.70;99.50;;;;;;8209762;28;20009;-80
2023/05/09 15:11:24;;;;;;;;;;;26.10;98.70;;;;;;8203785;28;20372;-81
2023/05/09 15:15:25;;;;;;;;;;;26.30;97.20;;;;;;8195029;28;19926;-81
2023/05/09 15:19:29;;;;;;;;;;;25.70;99.30;;;;;;8209255;28;19911;-79
2023/05/09 15:23:30;;;;;;;;;;;26.80;97.00;;;;;;8193900;28;20375;-81
2023/05/09 15:27:30;;;;;;;;;;;27.20;97.20;;;;;;8208180;28;19921;-80
2023/05/09 15:31:31;;;;;;;;;;;25.10;99.80;;;;;;8188069;28;20169;-80
2023/05/09 15:35:32;;;;;;;;;;;23.70;99.90;;;;;;8199092;28;20445;-80
2023/05/09 15:39:33;;;;;;;;;;;23.90;99.90;;;;;;8207700;28;19919;-81
2023/05/09 15:43:33;;;;;;;;;;;24.40;99.90;;;;;;8185980;28;19922;-80
2023/05/09 15:47:34;;;;;;;;;;;24.50;99.90;;;;;;8194278;28;19922;-81
2023/05/09 15:51:34;;;;;;;;;;;24.10;99.90;;;;;;8209132;28;19922;-81
2023/05/09 15:55:35;;;;;;;;;;;23.80;99.90;;;;;;8210397;28;19968;-82
2023/05/09 15:59:35;;;;;;;;;;;22.90;99.90;;;;;;8206777;28;19922;-82
2023/05/09 16:03:36;;;;;;;;;;;22.50;99.90;;;;;;8207187;28;19919;-82
2023/05/09 16:07:36;;;;;;;;;;;22.80;99.90;;;;;;8214774;28;20546;-82
2023/05/09 16:11:37;;;;;;;;;;;23.00;99.90;;;;;;8214672;28;20009;-81
2023/05/09 16:15:37;;;;;;;;;;;23.10;99.90;;;;;;8204637;28;19926;-81
2023/05/09 16:19:38;;;;;;;;;;;22.80;99.90;;;;;;8202872;28;20172;-81
2023/05/09 16:23:38;;;;;;;;;;;22.70;99.90;;;;;;8209513;28;19946;-80
2023/05/09 16:27:38;;;;;;;;;;;22.20;99.90;;;;;;8202807;28;20564;-81
2023/05/09 16:31:39;;;;;;;;;;;22.00;99.90;;;;;;8185798;28;20573;-81
2023/05/09 16:35:40;;;;;;;;;;;21.80;99.90;;;;;;8200558;28;19922;-81
2023/05/09 16:39:40;;;;;;;;;;;21.70;99.90;;;;;;8187216;28;19918;-81
2023/05/09 16:43:41;;;;;;;;;;;21.40;99.90;;;;;;8191553;28;19915;-81
2023/05/09 16:47:42;;;;;;;;;;;21.40;99.90;;;;;;8212648;28;19992;-80
2023/05/09 16:51:42;;;;;;;;;;;21.20;99.90;;;;;;8191086;28;19918;-80
2023/05/09 16:55:43;;;;;;;;;;;21.00;99.90;;;;;;8205471;28;19934;-80
2023/05/09 16:59:45;;;;;;;;;;;20.80;99.90;;;;;;8191659;28;19925;-80
2023/05/09 17:03:46;;;;;;;;;;;20.70;99.90;;;;;;8191955;28;19919;-80
2023/05/09 17:07:47;;;;;;;;;;;20.70;99.90;;;;;;8192094;28;20421;-82
2023/05/09 17:11:48;;;;;;;;;;;20.50;99.90;;;;;;8198755;28;19930;-80
2023/05/09 17:15:51;;;;;;;;;;;20.40;99.90;;;;;;8201332;28;19968;-81
2023/05/09 17:19:51;;;;;;;;;;;20.10;99.90;;;;;;8214200;28;19915;-80
2023/05/09 17:23:52;;;;;;;;;;;19.90;99.90;;;;;;8205847;28;20413;-80
2023/05/09 17:27:53;;;;;;;;;;;19.60;99.90;;;;;;8199665;28;19945;-81
2023/05/09 17:31:55;;;;;;;;;;;19.40;99.90;;;;;;8191185;28;19918;-80
2023/05/09 17:35:56;;;;;;;;;;;19.30;99.90;;;;;;8206269;28;19978;-80
2023/05/09 17:39:56;;;;;;;;;;;18.90;99.90;;;;;;8207663;28;19915;-81
2023/05/09 17:43:57;;;;;;;;;;;18.20;99.90;;;;;;8184272;28;20414;-82
2023/05/09 17:48:00;;;;;;;;;;;17.60;99.90;;;;;;8184649;28;19925;-80
2023/05/09 17:52:00;;;;;;;;;;;17.10;99.90;;;;;;8206468;28;19957;-80
2023/05/09 17:56:01;;;;;;;;;;;16.80;99.90;;;;;;8182717;28;19918;-81
2023/05/09 18:00:03;;;;;;;;;;;16.60;99.90;;;;;;8183475;29;19949;-81
2023/05/09 18:04:03;;;;;;;;;;;16.50;99.90;;;;;;8187249;29;19911;-81
2023/05/09 18:08:04;;;;;;;;;;;16.50;99.90;;;;;;8205439;28;19984;-80
2023/05/09 18:12:05;;;;;;;;;;;16.30;99.90;;;;;;8202046;28;19918;-81
2023/05/09 18:16:05;;;;;;;;;;;16.50;99.90;;;;;;8206377;28;20390;-81
2023/05/09 18:20:07;;;;;;;;;;;16.50;99.90;;;;;;8193846;28;19956;-80
2023/05/09 18:24:08;;;;;;;;;;;16.00;99.90;;;;;;8188091;28;19924;-81
2023/05/09 18:28:08;;;;;;;;;;;15.50;99.90;;;;;;8182405;28;20564;-81
2023/05/09 18:32:09;;;;;;;;;;;15.20;99.90;;;;;;8190458;29;19915;-80
2023/05/09 18:36:09;;;;;;;;;;;15.00;99.90;;;;;;8208973;28;19923;-81
2023/05/09 18:40:14;;;;;;;;;;;14.80;99.90;;;;;;8192705;28;20024;-82
2023/05/09 18:44:15;;;;;;;;;;;14.70;99.90;;;;;;8205574;28;19922;-84
2023/05/09 18:48:16;;;;;;;;;;;14.30;99.90;;;;;;8194134;28;19957;-85
2023/05/09 18:52:19;;;;;;;;;;;14.20;99.90;;;;;;8210719;28;20327;-85
2023/05/09 18:56:20;;;;;;;;;;;14.10;99.90;;;;;;8199984;28;20303;-85
2023/05/09 19:00:21;;;;;;;;;;;14.10;99.90;;;;;;8189043;28;19933;-86
2023/05/09 19:04:21;;;;;;;;;;;14.10;99.90;;;;;;8205754;28;20395;-87
2023/05/09 19:08:22;;;;;;;;;;;14.10;99.90;;;;;;8205293;28;19911;-86
2023/05/09 19:12:23;;;;;;;;;;;14.10;99.90;;;;;;8206713;28;19910;-86
2023/05/09 19:16:25;;;;;;;;;;;14.10;99.90;;;;;;8204953;28;19914;-85
2023/05/09 19:20:25;;;;;;;;;;;14.10;99.90;;;;;;8196911;28;19910;-85
2023/05/09 19:24:26;;;;;;;;;;;14.00;99.90;;;;;;8215771;28;19914;-84
2023/05/09 19:28:26;;;;;;;;;;;13.90;99.90;;;;;;8208275;28;19918;-84
2023/05/09 19:32:27;;;;;;;;;;;13.90;99.90;;;;;;8194106;28;19965;-83
2023/05/09 19:36:28;;;;;;;;;;;13.80;99.90;;;;;;8214849;28;19969;-84
2023/05/09 19:40:28;;;;;;;;;;;13.70;99.90;;;;;;8199047;28;20555;-84
2023/05/09 19:44:29;;;;;;;;;;;13.70;99.90;;;;;;8198673;28;20395;-84
2023/05/09 19:48:29;;;;;;;;;;;13.60;99.90;;;;;;8214396;28;19914;-83
2023/05/09 19:52:30;;;;;;;;;;;13.60;99.90;;;;;;8194956;28;20576;-83
2023/05/09 19:56:31;;;;;;;;;;;13.60;99.90;;;;;;8222734;28;20354;-83
2023/05/09 20:00:32;;;;;;;;;;;13.60;99.90;;;;;;8205432;28;19914;-83
2023/05/09 20:04:33;;;;;;;;;;;13.80;99.90;;;;;;8203438;28;19915;-83
2023/05/09 20:08:34;;;;;;;;;;;13.50;99.90;;;;;;8218305;28;20387;-83
2023/05/09 20:12:35;;;;;;;;;;;13.60;99.90;;;;;;8225618;28;19953;-83
2023/05/09 20:16:35;;;;;;;;;;;13.80;99.90;;;;;;8202558;28;19965;-83
2023/05/09 20:20:36;;;;;;;;;;;13.80;99.90;;;;;;8221699;28;19918;-82
2023/05/09 20:24:36;;;;;;;;;;;13.70;99.90;;;;;;8200646;28;19918;-83
2023/05/09 20:28:39;;;;;;;;;;;13.70;99.90;;;;;;8225779;28;19910;-84
2023/05/09 20:32:52;;;;;;;;;;;13.70;99.90;;;;;;8228320;28;19940;-82
2023/05/09 20:36:53;;;;;;;;;;;13.70;99.90;;;;;;8218659;28;19921;-83
2023/05/09 20:41:00;;;;;;;;;;;13.70;99.90;;;;;;8204229;29;19946;-83
2023/05/09 20:45:20;;;;;;;;;;;13.90;99.90;;;;;;8190359;28;20018;-84
2023/05/09 20:49:21;;;;;;;;;;;13.90;99.90;;;;;;8208025;28;19910;-84
2023/05/09 20:53:25;;;;;;;;;;;13.80;99.90;;;;;;8224065;28;20411;-84
2023/05/09 20:57:25;;;;;;;;;;;13.70;99.90;;;;;;8213151;28;20279;-83
2023/05/09 21:01:26;;;;;;;;;;;13.60;99.90;;;;;;8193336;28;19914;-83
2023/05/09 21:05:26;;;;;;;;;;;13.50;99.90;;;;;;8199850;28;19917;-83
2023/05/09 21:09:27;;;;;;;;;;;13.50;99.90;;;;;;8211633;28;19965;-86
2023/05/09 21:13:27;;;;;;;;;;;13.40;99.90;;;;;;8204679;28;19915;-83
2023/05/09 21:17:28;;;;;;;;;;;13.30;99.90;;;;;;8196905;28;19922;-83
2023/05/09 21:21:28;;;;;;;;;;;13.40;99.90;;;;;;8212310;28;19925;-83
2023/05/09 21:25:28;;;;;;;;;;;13.40;99.90;;;;;;8218744;28;19938;-83
2023/05/09 21:29:29;;;;;;;;;;;13.40;99.90;;;;;;8200739;28;19911;-83
2023/05/09 21:33:29;;;;;;;;;;;13.30;99.90;;;;;;8213860;28;20431;-84
2023/05/09 21:37:30;;;;;;;;;;;13.20;99.90;;;;;;8204292;28;19918;-83
2023/05/09 21:41:30;;;;;;;;;;;13.20;99.90;;;;;;8203225;28;20000;-83
2023/05/09 21:45:31;;;;;;;;;;;13.30;99.90;;;;;;8212632;28;19915;-83
2023/05/09 21:49:32;;;;;;;;;;;13.20;99.90;;;;;;8209783;28;19949;-82
2023/05/09 21:53:32;;;;;;;;;;;13.10;99.90;;;;;;8218438;28;19922;-82
2023/05/09 21:57:32;;;;;;;;;;;13.30;99.90;;;;;;8212962;28;19926;-83
2023/05/09 22:01:33;;;;;;;;;;;13.50;99.90;;;;;;8206839;28;19915;-82
2023/05/09 22:05:33;;;;;;;;;;;13.50;99.90;;;;;;8195748;28;19911;-81
2023/05/09 22:09:34;;;;;;;;;;;13.40;99.90;;;;;;8213693;28;20411;-81
2023/05/09 22:13:35;;;;;;;;;;;13.40;99.90;;;;;;8206922;28;20010;-83
2023/05/09 22:17:35;;;;;;;;;;;13.40;99.90;;;;;;8200729;28;20490;-80
2023/05/09 22:21:36;;;;;;;;;;;13.30;99.90;;;;;;8211326;28;19997;-80
2023/05/09 22:25:36;;;;;;;;;;;13.40;99.90;;;;;;8209190;28;19930;-81
2023/05/09 22:29:37;;;;;;;;;;;13.30;99.90;;;;;;8190455;29;19915;-83
2023/05/09 22:33:37;;;;;;;;;;;13.20;99.90;;;;;;8208365;28;20001;-82
2023/05/09 22:37:38;;;;;;;;;;;13.30;99.90;;;;;;8203553;28;20535;-83
2023/05/09 22:41:38;;;;;;;;;;;13.20;99.90;;;;;;8208281;28;20549;-81
2023/05/09 22:45:38;;;;;;;;;;;13.10;99.90;;;;;;8217702;28;19930;-83
2023/05/09 22:49:40;;;;;;;;;;;13.10;99.90;;;;;;8258214;23;19926;-86
2023/05/09 22:53:48;;;;;;;;;;;13.00;99.90;;;;;;8246111;28;19953;-83
2023/05/09 22:57:52;;;;;;;;;;;13.00;99.90;;;;;;8246521;28;19914;-85
2023/05/09 23:01:53;;;;;;;;;;;13.00;99.90;;;;;;8248273;28;19914;-86
2023/05/09 23:05:56;;;;;;;;;;;13.00;99.90;;;;;;8240593;28;19964;-85
2023/05/09 23:09:59;;;;;;;;;;;12.80;99.90;;;;;;8238784;28;19919;-84
2023/05/09 23:14:00;;;;;;;;;;;12.90;99.90;;;;;;8231705;28;19915;-84
2023/05/09 23:18:00;;;;;;;;;;;12.80;99.90;;;;;;8240262;28;19949;-85
2023/05/09 23:22:01;;;;;;;;;;;12.80;99.90;;;;;;8240559;28;20403;-83
2023/05/09 23:26:02;;;;;;;;;;;12.90;99.90;;;;;;8238997;28;19915;-86
2023/05/09 23:30:03;;;;;;;;;;;12.90;99.90;;;;;;8240134;28;19910;-84
2023/05/09 23:34:04;;;;;;;;;;;12.90;99.90;;;;;;8245213;28;19915;-85
2023/05/09 23:38:04;;;;;;;;;;;12.80;99.90;;;;;;8243677;28;19961;-84
2023/05/09 23:42:14;;;;;;;;;;;12.80;99.90;;;;;;8239883;28;19934;-84